createdAt,value
2019-03-28T00:03:58.313Z,16.97
2019-03-28T00:14:03.299Z,15.57
2019-03-28T00:24:12.487Z,13.43
2019-03-28T00:34:17.479Z,16.37
2019-03-28T00:44:22.476Z,17.73
2019-03-28T00:54:27.575Z,18.87
2019-03-28T01:04:32.566Z,16.33
2019-03-28T01:14:37.554Z,17.03
2019-03-28T01:24:42.661Z,17.53
2019-03-28T01:34:47.761Z,17.00
2019-03-28T01:44:52.843Z,17.57
2019-03-28T01:54:58.960Z,17.63
2019-03-28T02:05:07.066Z,18.50
2019-03-28T02:15:12.231Z,19.55
2019-03-28T02:25:17.435Z,16.57
2019-03-28T02:35:22.425Z,17.00
2019-03-28T02:45:27.412Z,18.07
2019-03-28T02:55:32.404Z,17.50
2019-03-28T03:05:37.437Z,18.57
2019-03-28T03:15:42.493Z,19.03
2019-03-28T03:25:47.603Z,19.50
2019-03-28T03:35:52.585Z,19.27
2019-03-28T03:45:57.686Z,19.47
2019-03-28T03:56:02.660Z,20.40
2019-03-28T04:06:07.781Z,19.47
2019-03-28T04:16:12.665Z,18.03
2019-03-28T04:26:17.705Z,18.95
2019-03-28T04:36:22.649Z,18.53
2019-03-28T04:46:27.651Z,18.87
2019-03-28T04:56:32.626Z,19.83
2019-03-28T05:06:38.144Z,19.00
2019-03-28T05:16:43.453Z,19.43
2019-03-28T05:26:48.524Z,20.67
2019-03-28T05:36:53.533Z,28.43
2019-03-28T05:46:59.551Z,22.73
2019-03-28T05:57:05.265Z,21.63
2019-03-28T06:07:10.401Z,20.37
2019-03-28T06:17:15.655Z,25.10
2019-03-28T06:27:20.851Z,16.60
2019-03-28T06:37:25.950Z,15.93
2019-03-28T06:47:30.935Z,15.10
2019-03-28T06:57:36.051Z,13.90
2019-03-28T07:07:41.041Z,17.63
2019-03-28T07:17:46.016Z,16.50
2019-03-28T07:27:51.018Z,12.53
2019-03-28T07:37:56.015Z,13.70
2019-03-28T07:48:01.206Z,14.23
2019-03-28T07:58:08.604Z,17.43
2019-03-28T08:08:15.287Z,19.30
2019-03-28T08:18:23.600Z,21.07
2019-03-28T08:28:27.022Z,22.53
2019-03-28T08:38:34.189Z,28.37
2019-03-28T08:48:39.254Z,29.97
2019-03-28T08:58:44.347Z,29.00
2019-03-28T09:08:49.562Z,33.37
2019-03-28T09:18:54.587Z,20.53
2019-03-28T09:28:59.561Z,30.90
2019-03-28T09:39:07.733Z,45.23
2019-03-28T09:49:12.705Z,36.10
2019-03-28T09:59:17.687Z,27.10
2019-03-28T10:09:22.677Z,16.50
2019-03-28T10:19:27.688Z,18.53
2019-03-28T10:29:32.683Z,13.60
2019-03-28T10:39:37.674Z,18.67
2019-03-28T10:49:42.783Z,16.47
2019-03-28T10:59:47.730Z,9.80
2019-03-28T11:09:52.755Z,8.40
2019-03-28T11:19:57.849Z,7.97
2019-03-28T11:30:02.859Z,8.43
2019-03-28T11:40:10.151Z,31.75
2019-03-28T11:50:17.275Z,13.77
2019-03-28T12:00:22.748Z,7.78
2019-03-28T12:10:27.833Z,11.30
2019-03-28T12:20:32.861Z,12.07
2019-03-28T12:30:37.945Z,10.98
2019-03-28T12:40:42.934Z,10.00
2019-03-28T12:50:58.210Z,7.47
2019-03-28T13:00:54.715Z,9.15
2019-03-28T13:10:59.764Z,11.75
2019-03-28T13:21:13.269Z,14.53
2019-03-28T13:31:12.200Z,10.80
2019-03-28T13:41:17.545Z,20.75
2019-03-28T13:51:22.775Z,11.55
2019-03-28T14:01:27.773Z,11.05
2019-03-28T14:11:32.888Z,21.57
2019-03-28T14:21:37.959Z,13.35
2019-03-28T14:31:43.179Z,14.23
2019-03-28T14:41:49.055Z,25.17
2019-03-28T14:51:54.188Z,19.33
2019-03-28T15:01:59.168Z,25.23
2019-03-28T15:12:04.424Z,11.97
2019-03-28T15:22:09.682Z,10.57
2019-03-28T15:32:14.971Z,14.07
2019-03-28T15:42:20.158Z,19.87
2019-03-28T15:52:27.476Z,22.10
2019-03-28T16:02:32.401Z,20.90
2019-03-28T16:12:37.593Z,27.20
2019-03-28T16:22:42.937Z,47.17
2019-03-28T16:32:48.216Z,57.73
2019-03-28T16:42:53.430Z,46.47
2019-03-28T16:52:58.502Z,53.20
2019-03-28T17:03:04.007Z,51.30
2019-03-28T17:13:09.343Z,43.90
2019-03-28T17:23:14.819Z,32.40
2019-03-28T17:33:20.623Z,33.90
2019-03-28T17:43:25.899Z,36.27
2019-03-28T17:53:31.208Z,41.17
2019-03-28T18:03:36.383Z,39.65
2019-03-28T18:13:41.725Z,48.17
2019-03-28T18:23:47.009Z,49.10
2019-03-28T18:33:52.512Z,62.73
2019-03-28T18:43:57.636Z,37.40
2019-03-28T18:54:02.776Z,49.00
2019-03-28T19:04:08.211Z,44.87
2019-03-28T19:14:13.532Z,47.53
2019-03-28T19:24:19.001Z,44.83
2019-03-28T19:34:24.374Z,70.17
2019-03-28T19:44:30.743Z,72.10
2019-03-28T19:54:36.206Z,92.20
2019-03-28T20:04:41.714Z,83.10
2019-03-28T20:14:47.111Z,71.20
2019-03-28T20:24:53.946Z,68.10
2019-03-28T20:35:00.841Z,78.50
2019-03-28T20:45:10.811Z,80.67
2019-03-28T20:55:16.576Z,74.10
2019-03-28T21:05:23.375Z,73.97
2019-03-28T21:15:28.926Z,59.90
2019-03-28T21:25:34.427Z,62.70
2019-03-28T21:35:39.919Z,90.33
2019-03-28T21:45:45.176Z,63.50
2019-03-28T21:55:55.456Z,72.90
2019-03-28T22:05:57.337Z,51.65
2019-03-28T22:16:02.437Z,50.07
2019-03-28T22:26:07.435Z,50.73
2019-03-28T22:36:12.538Z,51.33
2019-03-28T22:46:17.506Z,53.00
2019-03-28T22:56:22.932Z,58.57
2019-03-28T23:06:28.646Z,47.03
2019-03-28T23:16:34.757Z,45.63
2019-03-28T23:26:39.750Z,43.80
2019-03-28T23:36:44.828Z,43.50
2019-03-28T23:46:50.867Z,46.02
2019-03-28T23:56:55.966Z,45.88
